createdAt,value
2022-11-15T00:00:42.297Z,992.54
2022-11-15T00:06:27.229Z,992.45
2022-11-15T00:12:10.265Z,992.5
2022-11-15T00:17:54.001Z,992.51
2022-11-15T00:23:37.381Z,992.45
2022-11-15T00:29:20.484Z,992.38
2022-11-15T00:35:03.304Z,992.47
2022-11-15T00:40:46.792Z,992.55
2022-11-15T00:46:29.688Z,992.55
2022-11-15T00:52:14.577Z,992.51
2022-11-15T00:57:57.556Z,992.49
2022-11-15T01:03:41.049Z,992.55
2022-11-15T01:09:24.037Z,992.51
2022-11-15T01:15:07.172Z,992.51
2022-11-15T01:20:51.384Z,992.46
2022-11-15T01:26:34.423Z,992.46
2022-11-15T01:32:17.363Z,992.38
2022-11-15T01:38:00.176Z,992.33
2022-11-15T01:43:42.980Z,992.22
2022-11-15T01:49:29.350Z,992.11
2022-11-15T01:55:15.291Z,992.09
2022-11-15T02:00:59.352Z,992.04
2022-11-15T02:06:43.054Z,991.97
2022-11-15T02:12:26.121Z,991.86
2022-11-15T02:18:17.218Z,991.93
2022-11-15T02:24:17.475Z,991.9
2022-11-15T02:30:08.809Z,991.81
2022-11-15T02:35:56.988Z,991.74
2022-11-15T02:41:43.897Z,991.72
2022-11-15T02:47:29.567Z,991.73
2022-11-15T02:53:13.082Z,991.72
2022-11-15T02:59:03.999Z,991.69
2022-11-15T03:04:52.986Z,991.62
2022-11-15T03:10:41.754Z,991.57
2022-11-15T03:16:27.426Z,991.59
2022-11-15T03:22:12.858Z,991.65
2022-11-15T03:27:57.974Z,991.72
2022-11-15T03:33:42.200Z,991.76
2022-11-15T03:39:26.261Z,991.76
2022-11-15T03:45:12.824Z,991.81
2022-11-15T03:50:56.166Z,991.79
2022-11-15T03:56:39.114Z,991.8
2022-11-15T04:02:22.940Z,991.8
2022-11-15T04:08:05.840Z,991.74
2022-11-15T04:13:50.663Z,991.67
2022-11-15T04:19:33.448Z,991.65
2022-11-15T04:25:23.564Z,991.72
2022-11-15T04:31:13.856Z,991.63
2022-11-15T04:36:56.782Z,991.62
2022-11-15T04:42:41.853Z,991.72
2022-11-15T04:48:24.599Z,991.71
2022-11-15T04:54:07.776Z,991.69
2022-11-15T04:59:50.537Z,991.68
2022-11-15T05:05:33.696Z,991.73
2022-11-15T05:11:17.601Z,991.67
2022-11-15T05:17:00.480Z,991.59
2022-11-15T05:22:43.733Z,991.61
2022-11-15T05:28:26.773Z,991.59
2022-11-15T05:34:09.703Z,991.56
2022-11-15T05:39:52.681Z,991.53
2022-11-15T05:45:36.430Z,991.51
2022-11-15T05:51:21.068Z,991.63
2022-11-15T05:57:04.074Z,991.55
2022-11-15T06:02:47.175Z,991.48
2022-11-15T06:08:31.128Z,991.47
2022-11-15T06:14:15.192Z,991.48
2022-11-15T06:19:58.090Z,991.44
2022-11-15T06:25:41.116Z,991.46
2022-11-15T06:31:23.891Z,991.53
2022-11-15T06:37:06.829Z,991.56
2022-11-15T06:42:49.579Z,991.59
2022-11-15T06:48:33.144Z,991.66
2022-11-15T06:54:16.119Z,991.61
2022-11-15T06:59:59.144Z,991.68
2022-11-15T07:05:41.990Z,991.66
2022-11-15T07:11:24.991Z,991.65
2022-11-15T07:17:08.701Z,991.58
2022-11-15T07:22:51.544Z,991.67
2022-11-15T07:28:34.574Z,991.74
2022-11-15T07:34:18.050Z,991.78
2022-11-15T07:40:01.196Z,991.8
2022-11-15T07:45:46.336Z,991.8
2022-11-15T07:51:29.428Z,991.59
2022-11-15T07:57:13.316Z,991.53
2022-11-15T08:03:01.180Z,991.38
2022-11-15T08:08:44.194Z,991.25
2022-11-15T08:14:29.385Z,991.18
2022-11-15T08:20:12.861Z,991.15
2022-11-15T08:26:00.178Z,991.17
2022-11-15T08:31:43.514Z,991.12
2022-11-15T08:37:26.376Z,991.11
2022-11-15T08:43:09.361Z,991.02
2022-11-15T08:48:52.289Z,990.9
2022-11-15T08:54:35.174Z,990.92
2022-11-15T09:00:18.828Z,990.83
2022-11-15T09:06:03.802Z,990.73
2022-11-15T09:11:48.640Z,990.65
2022-11-15T09:17:31.530Z,990.74
2022-11-15T09:23:14.835Z,990.64
2022-11-15T09:28:57.680Z,990.53
2022-11-15T09:34:40.696Z,990.47
2022-11-15T09:40:24.214Z,990.37
2022-11-15T09:46:14.924Z,990.24
2022-11-15T09:51:59.420Z,990.21
2022-11-15T09:57:45.920Z,990.21
2022-11-15T10:03:31.727Z,990.29
2022-11-15T10:09:24.043Z,990.08
2022-11-15T10:15:12.759Z,990.03
2022-11-15T10:20:59.081Z,990
2022-11-15T10:26:47.541Z,989.93
2022-11-15T10:32:31.478Z,989.73
2022-11-15T10:38:14.445Z,989.67
2022-11-15T10:44:10.488Z,989.44
2022-11-15T10:50:04.645Z,989.31
2022-11-15T10:55:48.997Z,989.19
2022-11-15T11:01:38.881Z,988.97
2022-11-15T11:07:26.513Z,988.95
2022-11-15T11:13:23.584Z,988.88
2022-11-15T11:19:12.454Z,988.77
2022-11-15T11:25:00.612Z,988.62
2022-11-15T11:30:50.224Z,988.57
2022-11-15T11:36:36.994Z,988.51
2022-11-15T11:42:24.997Z,988.32
2022-11-15T11:48:12.224Z,988.2
2022-11-15T11:53:58.018Z,988.09
2022-11-15T11:59:45.362Z,987.94
2022-11-15T12:05:31.886Z,987.91
2022-11-15T12:11:16.656Z,987.74
2022-11-15T12:16:59.472Z,987.66
2022-11-15T12:22:44.537Z,987.55
2022-11-15T12:28:33.139Z,987.4
2022-11-15T12:34:25.993Z,987.35
2022-11-15T12:40:17.228Z,987.23
2022-11-15T12:46:02.991Z,987.14
2022-11-15T12:52:06.295Z,986.91
2022-11-15T12:57:49.285Z,986.77
2022-11-15T13:03:32.595Z,986.62
2022-11-15T13:09:28.463Z,986.52
2022-11-15T13:15:22.533Z,986.41
2022-11-15T13:21:07.514Z,986.29
2022-11-15T13:26:50.559Z,986.19
2022-11-15T13:32:33.488Z,986.08
2022-11-15T13:38:20.104Z,985.97
2022-11-15T13:44:03.884Z,985.88
2022-11-15T13:49:46.668Z,985.84
2022-11-15T13:55:30.332Z,985.75
2022-11-15T14:01:16.125Z,985.8
2022-11-15T14:07:00.868Z,985.76
2022-11-15T14:12:48.854Z,985.76
2022-11-15T14:18:49.021Z,985.74
2022-11-15T14:24:33.044Z,985.63
2022-11-15T14:30:19.286Z,985.66
2022-11-15T14:36:04.936Z,985.66
2022-11-15T14:41:49.057Z,985.52
2022-11-15T14:47:31.828Z,985.45
2022-11-15T14:53:17.993Z,985.47
2022-11-15T14:59:01.023Z,985.41
2022-11-15T15:04:44.111Z,985.35
2022-11-15T15:10:42.294Z,985.27
2022-11-15T15:16:24.207Z,985.15
2022-11-15T15:22:07.232Z,985.12
2022-11-15T15:27:50.342Z,985.04
2022-11-15T15:33:33.494Z,985.03
2022-11-15T15:39:16.511Z,984.96
2022-11-15T15:45:00.383Z,984.92
2022-11-15T15:50:43.829Z,984.84
2022-11-15T15:56:27.921Z,984.75
2022-11-15T16:02:13.034Z,984.68
2022-11-15T16:07:56.885Z,984.74
2022-11-15T16:13:39.900Z,984.64
2022-11-15T16:19:23.867Z,984.6
2022-11-15T16:25:09.866Z,984.59
2022-11-15T16:30:58.942Z,984.52
2022-11-15T16:36:42.317Z,984.53
2022-11-15T16:42:25.111Z,984.55
2022-11-15T16:48:08.113Z,984.56
2022-11-15T16:53:53.145Z,984.49
2022-11-15T16:59:39.434Z,984.44
2022-11-15T17:05:23.156Z,984.43
2022-11-15T17:11:09.585Z,984.45
2022-11-15T17:16:52.606Z,984.42
2022-11-15T17:22:36.860Z,984.29
2022-11-15T17:28:21.673Z,984.38
2022-11-15T17:34:05.569Z,984.32
2022-11-15T17:39:48.421Z,984.27
2022-11-15T17:45:32.457Z,984.29
2022-11-15T17:51:16.158Z,984.27
2022-11-15T17:57:00.134Z,984.19
2022-11-15T18:02:44.047Z,984.1
2022-11-15T18:08:27.821Z,984.04
2022-11-15T18:14:13.378Z,984.01
2022-11-15T18:19:56.319Z,983.97
2022-11-15T18:25:39.094Z,983.83
2022-11-15T18:31:23.108Z,983.88
2022-11-15T18:37:05.867Z,983.9
2022-11-15T18:42:48.584Z,983.79
2022-11-15T18:48:33.804Z,983.72
2022-11-15T18:54:17.454Z,983.66
2022-11-15T19:00:00.310Z,983.61
2022-11-15T19:05:43.537Z,983.57
2022-11-15T19:11:27.773Z,983.5
2022-11-15T19:17:10.766Z,983.46
2022-11-15T19:22:53.686Z,983.42
2022-11-15T19:28:36.774Z,983.46
2022-11-15T19:34:19.691Z,983.38
2022-11-15T19:40:04.350Z,983.3
2022-11-15T19:45:54.951Z,983.27
2022-11-15T19:51:45.296Z,983.2
2022-11-15T19:57:29.080Z,983.14
2022-11-15T20:03:13.739Z,983.1
2022-11-15T20:08:57.279Z,983.13
2022-11-15T20:14:40.334Z,983.07
2022-11-15T20:20:24.602Z,983.07
2022-11-15T20:26:09.125Z,983.01
2022-11-15T20:31:54.478Z,982.93
2022-11-15T20:37:38.109Z,982.96
2022-11-15T20:43:21.972Z,982.85
2022-11-15T20:49:05.009Z,982.9
2022-11-15T20:54:48.273Z,982.96
2022-11-15T21:00:31.264Z,982.83
2022-11-15T21:06:14.353Z,982.78
2022-11-15T21:11:58.660Z,982.69
2022-11-15T21:17:41.782Z,982.66
2022-11-15T21:23:24.958Z,982.7
2022-11-15T21:29:08.534Z,982.69
2022-11-15T21:34:52.702Z,982.7
2022-11-15T21:40:37.567Z,982.58
2022-11-15T21:46:20.818Z,982.55
2022-11-15T21:52:04.102Z,982.54
2022-11-15T21:57:47.177Z,982.46
2022-11-15T22:03:30.071Z,982.6
2022-11-15T22:09:12.905Z,982.41
2022-11-15T22:14:56.150Z,982.52
2022-11-15T22:20:45.278Z,982.51
2022-11-15T22:26:28.449Z,982.54
2022-11-15T22:32:11.458Z,982.5
2022-11-15T22:37:54.599Z,982.58
2022-11-15T22:43:37.702Z,982.35
2022-11-15T22:49:21.633Z,982.29
2022-11-15T22:55:13.833Z,982.42
2022-11-15T23:00:57.723Z,982.24
2022-11-15T23:06:40.950Z,982.34
2022-11-15T23:12:25.204Z,982.48
2022-11-15T23:18:08.241Z,982.48
2022-11-15T23:23:51.990Z,982.54
2022-11-15T23:29:35.236Z,982.62
2022-11-15T23:35:18.376Z,982.63
2022-11-15T23:41:01.493Z,982.6
2022-11-15T23:46:44.456Z,982.64
2022-11-15T23:52:28.336Z,982.63
2022-11-15T23:58:11.464Z,982.55
